Pernille — 5BNZ2 — position and weather

sailwx.info

Track history (hours):
 
Tides and Currents Weather Stations Pressure Air Temp Water Temp Dewpoint Dewpoint Depression Visibility Wind Speed Wind Dir Waves Ship Positions

Pernille

Last reported at 2014-Jul-28 02:15 UTC. Time now 2014-Jul-29 14:48 UTC.
Position N 41°06' E 001°14'.

Length 82 m; draft 5.5 m.

Type: Cargo ship. MMSI: 212662000.

Date/timePositionNaut miles runAvg speedWind from/ knotsBaromVisibWave heightAir tempDewpointWater temp
2014-Jul-28 02:15N 41°06' E 001°14'0 0.0
2014-Jul-28 00:27N 41°06' E 001°14'4 0.2
2014-Jul-27 06:29N 41°02' E 001°15'1111.4
2014-Jul-27 05:29N 40°52' E 001°23'1111.6
2014-Jul-27 04:33N 40°43' E 001°29'1111.0
2014-Jul-27 03:33N 40°32' E 001°25'1111.2
2014-Jul-27 02:33N 40°22' E 001°19'1111.3
2014-Jul-27 01:33N 40°11' E 001°14'1111.3
2014-Jul-27 00:33N 40°01' E 001°09'1111.0
2014-Jul-26 23:33N 39°51' E 001°03'27110.7
2014-Jul-25 22:06N 36°19' W 002°32'13711.9
2014-Jul-25 10:34N 35°54' W 005°19'0 0.4
2014-Jul-25 09:31N 35°54' W 005°19'0 0.0
2014-Jul-25 08:31N 35°54' W 005°19'0 0.0
2014-Jul-25 07:33N 35°54' W 005°19'3 3.0
2014-Jul-25 06:33N 35°57' W 005°21'15811.9
2014-Jul-24 17:12N 36°25' W 008°34'1911.7
2014-Jul-24 15:33N 36°31' W 008°57'2711.1
2014-Jul-24 13:04N 36°44' W 009°27'5211.4
2014-Jul-24 08:32N 37°34' W 009°45'1311.6
2014-Jul-24 07:25N 37°46' W 009°49'1011.4
2014-Jul-24 06:32N 37°56' W 009°52'1111.7
2014-Jul-24 05:33N 38°07' W 009°55'3811.5
2014-Jul-24 02:17N 38°44' W 010°05'3311.6
2014-Jul-23 23:26N 39°17' W 010°05'  
2014-Jul-21 17:33N 48°47' W 005°50'26111.2
2014-Jul-20 18:11N 50°35' E 000°17'711.1
2014-Jul-20 17:33N 50°37' E 000°27'1110.5
2014-Jul-20 16:33N 50°42' E 000°42'3511.6
2014-Jul-20 13:33N 51°04' E 001°25'1413.6
2014-Jul-20 12:34N 51°12' E 001°42'1211.8
2014-Jul-20 11:33N 51°22' E 001°54'1111.3
2014-Jul-20 10:33N 51°31' E 002°04'1010.5
2014-Jul-20 09:33N 51°39' E 002°15'3410.1
2014-Jul-20 06:11N 52°05' E 002°51'710.9
2014-Jul-20 05:32N 52°10' E 002°58'4812.0
2014-Jul-20 01:31N 52°49' E 003°46'5110.0
2014-Jul-19 20:28N 53°28' E 004°39'1011.4
2014-Jul-19 19:33N 53°32' E 004°56'1212.1
2014-Jul-19 18:33N 53°36' E 005°15'1212.2
2014-Jul-19 17:33N 53°40' E 005°34'1211.8
2014-Jul-19 16:33N 53°44' E 005°53'1210.6
2014-Jul-19 15:27N 53°47' E 006°12'48 9.7
2014-Jul-19 10:32N 53°59' E 007°30'1111.3
2014-Jul-19 09:33N 54°01' E 007°49'1212.3
2014-Jul-19 08:33N 54°01' E 008°10'1313.5
2014-Jul-19 07:33N 53°58' E 008°32'1211.6
2014-Jul-19 06:33N 53°51' E 008°47'10 9.7
2014-Jul-19 05:31N 53°52' E 009°04'3 3.2
2014-Jul-19 04:32N 53°54' E 009°09'4 4.2
2014-Jul-19 03:33N 53°57' E 009°13'9 8.8
2014-Jul-19 02:33N 54°05' E 009°19'37 5.2
2014-Jul-18 19:32N 54°25' E 010°12'9 9.1
2014-Jul-18 18:33N 54°31' E 010°22'10 9.9
2014-Jul-18 17:34N 54°34' E 010°38'1010.0
2014-Jul-18 16:33N 54°35' E 010°56'1010.1
2014-Jul-18 15:34N 54°35' E 011°13'1110.6
2014-Jul-18 14:33N 54°31' E 011°30'1010.1
2014-Jul-18 13:34N 54°28' E 011°46'1010.1
2014-Jul-18 12:33N 54°27' E 012°03'9 8.9
2014-Jul-18 11:33N 54°34' E 012°13'10 9.5
2014-Jul-18 10:33N 54°40' E 012°25'1010.1
2014-Jul-18 09:34N 54°46' E 012°40'1010.0
2014-Jul-18 08:32N 54°50' E 012°56'1010.4
2014-Jul-18 07:33N 54°54' E 013°12'1010.2
2014-Jul-18 06:33N 54°57' E 013°29'1010.2
2014-Jul-18 05:33N 55°01' E 013°45'1110.6
2014-Jul-18 04:34N 55°05' E 014°02'1010.3
2014-Jul-18 03:33N 55°12' E 014°15'1010.4
2014-Jul-18 02:33N 55°20' E 014°27'  
Track history (hours):
 
Tides and Currents Weather Stations Pressure Air Temp Water Temp Dewpoint Dewpoint Depression Visibility Wind Speed Wind Dir Waves Ship Positions

Pernille

Last reported at 2014-Jul-28 02:15 UTC. Time now 2014-Jul-29 14:48 UTC.
Position N 41°06' E 001°14'.

Length 82 m; draft 5.5 m.

Type: Cargo ship. MMSI: 212662000.

Date/timePositionNaut miles runAvg speedWind from/ knotsBaromVisibWave heightAir tempDewpointWater temp
2014-Jul-28 02:15N 41°06' E 001°14'0 0.0
2014-Jul-28 00:27N 41°06' E 001°14'4 0.2
2014-Jul-27 06:29N 41°02' E 001°15'1111.4
2014-Jul-27 05:29N 40°52' E 001°23'1111.6
2014-Jul-27 04:33N 40°43' E 001°29'1111.0
2014-Jul-27 03:33N 40°32' E 001°25'1111.2
2014-Jul-27 02:33N 40°22' E 001°19'1111.3
2014-Jul-27 01:33N 40°11' E 001°14'1111.3
2014-Jul-27 00:33N 40°01' E 001°09'1111.0
2014-Jul-26 23:33N 39°51' E 001°03'27110.7
2014-Jul-25 22:06N 36°19' W 002°32'13711.9
2014-Jul-25 10:34N 35°54' W 005°19'0 0.4
2014-Jul-25 09:31N 35°54' W 005°19'0 0.0
2014-Jul-25 08:31N 35°54' W 005°19'0 0.0
2014-Jul-25 07:33N 35°54' W 005°19'3 3.0
2014-Jul-25 06:33N 35°57' W 005°21'15811.9
2014-Jul-24 17:12N 36°25' W 008°34'1911.7
2014-Jul-24 15:33N 36°31' W 008°57'2711.1
2014-Jul-24 13:04N 36°44' W 009°27'5211.4
2014-Jul-24 08:32N 37°34' W 009°45'1311.6
2014-Jul-24 07:25N 37°46' W 009°49'1011.4
2014-Jul-24 06:32N 37°56' W 009°52'1111.7
2014-Jul-24 05:33N 38°07' W 009°55'3811.5
2014-Jul-24 02:17N 38°44' W 010°05'3311.6
2014-Jul-23 23:26N 39°17' W 010°05'  
2014-Jul-21 17:33N 48°47' W 005°50'26111.2
2014-Jul-20 18:11N 50°35' E 000°17'711.1
2014-Jul-20 17:33N 50°37' E 000°27'1110.5
2014-Jul-20 16:33N 50°42' E 000°42'3511.6
2014-Jul-20 13:33N 51°04' E 001°25'1413.6
2014-Jul-20 12:34N 51°12' E 001°42'1211.8
2014-Jul-20 11:33N 51°22' E 001°54'1111.3
2014-Jul-20 10:33N 51°31' E 002°04'1010.5
2014-Jul-20 09:33N 51°39' E 002°15'3410.1
2014-Jul-20 06:11N 52°05' E 002°51'710.9
2014-Jul-20 05:32N 52°10' E 002°58'4812.0
2014-Jul-20 01:31N 52°49' E 003°46'5110.0
2014-Jul-19 20:28N 53°28' E 004°39'1011.4
2014-Jul-19 19:33N 53°32' E 004°56'1212.1
2014-Jul-19 18:33N 53°36' E 005°15'1212.2
2014-Jul-19 17:33N 53°40' E 005°34'1211.8
2014-Jul-19 16:33N 53°44' E 005°53'1210.6
2014-Jul-19 15:27N 53°47' E 006°12'48 9.7
2014-Jul-19 10:32N 53°59' E 007°30'1111.3
2014-Jul-19 09:33N 54°01' E 007°49'1212.3
2014-Jul-19 08:33N 54°01' E 008°10'1313.5
2014-Jul-19 07:33N 53°58' E 008°32'1211.6
2014-Jul-19 06:33N 53°51' E 008°47'10 9.7
2014-Jul-19 05:31N 53°52' E 009°04'3 3.2
2014-Jul-19 04:32N 53°54' E 009°09'4 4.2
2014-Jul-19 03:33N 53°57' E 009°13'9 8.8
2014-Jul-19 02:33N 54°05' E 009°19'37 5.2
2014-Jul-18 19:32N 54°25' E 010°12'9 9.1
2014-Jul-18 18:33N 54°31' E 010°22'10 9.9
2014-Jul-18 17:34N 54°34' E 010°38'1010.0
2014-Jul-18 16:33N 54°35' E 010°56'1010.1
2014-Jul-18 15:34N 54°35' E 011°13'1110.6
2014-Jul-18 14:33N 54°31' E 011°30'1010.1
2014-Jul-18 13:34N 54°28' E 011°46'1010.1
2014-Jul-18 12:33N 54°27' E 012°03'9 8.9
2014-Jul-18 11:33N 54°34' E 012°13'10 9.5
2014-Jul-18 10:33N 54°40' E 012°25'1010.1
2014-Jul-18 09:34N 54°46' E 012°40'1010.0
2014-Jul-18 08:32N 54°50' E 012°56'1010.4
2014-Jul-18 07:33N 54°54' E 013°12'1010.2
2014-Jul-18 06:33N 54°57' E 013°29'1010.2
2014-Jul-18 05:33N 55°01' E 013°45'1110.6
2014-Jul-18 04:34N 55°05' E 014°02'1010.3
2014-Jul-18 03:33N 55°12' E 014°15'1010.4
2014-Jul-18 02:33N 55°20' E 014°27'  

Dump ship's entire track history